< < Back
Terminal Aerodrome Forecast


Current Version              Previous Versions:   1  2  3  4  5  6  7  8  9  

Terminal Aerodrome Forecast

825
FTUS42 KGSP 241144 AAB
TAFAND
TAF AMD
KAND 241144Z 2412/2512 21008KT P6SM SCT008 BKN012
      TEMPO 2412/2414 BKN008 OVC012
     FM241500 21012G21KT P6SM BKN012
     FM241600 22013G23KT P6SM SCT029
     FM242300 24007KT P6SM SCT050=

Latest METAR

093
SAUS70 KWBC 241300
MTRAND
METAR KAND 241156Z AUTO 21007KT 10SM SCT010 BKN015 14/13 A2979 RMK AO2
SLP083 70153 T01390133 10150 20128 50006


USA.gov is the U.S. government's official web portal to all federal, state and local government web resources and services.